Time;durP1;ratioP1;P1;durP2;ratioP2;P2;SDS_P1;SDS_P2;PMS_P1;PMS_P2;Temp;Humidity;BMP_temperature;BMP_pressure;BME280_temperature;BME280_humidity;BME280_pressure;Samples;Min_cycle;Max_cycle;Signal;HPM_P1;HPM_P2
2022/12/19 00:53:40;;;;;;;4.67;1.70;;;1.20;99.90;;;;;;5154280;27;20591;-93
2022/12/19 00:56:18;;;;;;;5.33;2.13;;;1.20;99.90;;;;;;5155568;27;20647;-95
2022/12/19 00:58:49;;;;;;;1.27;1.17;;;1.30;99.90;;;;;;5155645;27;20694;-93
2022/12/19 01:01:24;;;;;;;4.37;1.57;;;1.30;99.90;;;;;;5153774;27;20259;-94
2022/12/19 01:03:56;;;;;;;2.60;1.10;;;1.30;99.90;;;;;;5139377;27;20194;-95
2022/12/19 01:06:48;;;;;;;2.00;1.03;;;1.20;99.90;;;;;;5139627;27;20204;-93
2022/12/19 01:09:22;;;;;;;2.20;1.00;;;1.20;99.90;;;;;;5155379;27;20282;-94
2022/12/19 01:14:41;;;;;;;3.30;1.30;;;1.10;99.90;;;;;;5174083;27;20381;-93
2022/12/19 01:17:14;;;;;;;3.23;1.40;;;1.20;99.90;;;;;;5154826;27;20193;-93
2022/12/19 01:19:45;;;;;;;2.23;1.20;;;1.20;99.90;;;;;;5134378;27;20209;-90
2022/12/19 01:22:16;;;;;;;2.73;1.50;;;1.20;99.90;;;;;;5157045;27;20591;-94
2022/12/19 01:24:48;;;;;;;3.37;1.80;;;1.10;99.90;;;;;;5151238;27;20211;-94
2022/12/19 01:27:19;;;;;;;3.40;2.10;;;1.20;99.90;;;;;;5153297;27;20299;-94
2022/12/19 01:29:51;;;;;;;3.23;1.37;;;1.10;99.90;;;;;;5138974;27;20197;-94
2022/12/19 01:32:22;;;;;;;2.07;1.40;;;1.00;99.90;;;;;;5138266;27;20252;-94
2022/12/19 01:34:59;;;;;;;2.13;1.10;;;1.00;99.90;;;;;;5153526;27;20204;-93
2022/12/19 01:37:30;;;;;;;3.90;1.47;;;0.90;99.90;;;;;;5163395;27;20204;-94
2022/12/19 01:40:06;;;;;;;5.17;1.80;;;0.90;99.90;;;;;;5162870;27;20205;-94
2022/12/19 01:42:42;;;;;;;4.23;1.93;;;0.90;99.90;;;;;;5163784;27;20245;-93
2022/12/19 01:45:29;;;;;;;3.23;1.43;;;0.90;99.90;;;;;;5139264;27;20254;-95
2022/12/19 01:48:18;;;;;;;2.07;1.53;;;0.80;99.90;;;;;;5135714;27;20240;-94
2022/12/19 01:50:59;;;;;;;2.40;1.40;;;0.80;99.90;;;;;;5135452;27;20205;-94
2022/12/19 01:53:38;;;;;;;1.63;1.43;;;0.80;99.90;;;;;;5126547;27;20206;-95
2022/12/19 01:56:24;;;;;;;3.17;1.70;;;0.70;99.90;;;;;;5140714;27;20217;-94
2022/12/19 01:58:58;;;;;;;4.00;1.70;;;0.80;99.90;;;;;;5137151;27;20210;-95
2022/12/19 02:01:36;;;;;;;6.73;1.50;;;0.90;99.90;;;;;;5139301;27;20195;-93
2022/12/19 02:04:24;;;;;;;3.90;1.60;;;0.80;99.90;;;;;;5153778;27;20214;-94
2022/12/19 02:07:02;;;;;;;2.93;1.67;;;0.90;99.90;;;;;;5143432;27;20201;-94
2022/12/19 02:09:47;;;;;;;2.27;1.40;;;0.80;99.90;;;;;;5142190;27;20209;-95
2022/12/19 02:12:32;;;;;;;4.07;1.93;;;0.70;99.90;;;;;;5153123;27;20190;-94
2022/12/19 02:15:12;;;;;;;2.73;1.67;;;0.70;99.90;;;;;;5130779;28;20225;-93
2022/12/19 02:17:58;;;;;;;3.73;1.20;;;0.70;99.90;;;;;;5154325;27;20254;-94
2022/12/19 02:21:04;;;;;;;3.13;1.10;;;0.70;99.90;;;;;;5151871;27;20273;-94
2022/12/19 02:24:16;;;;;;;2.27;1.07;;;0.70;99.90;;;;;;5121464;28;20234;-94
2022/12/19 02:27:03;;;;;;;1.30;1.00;;;0.70;99.90;;;;;;5136440;27;20232;-93
2022/12/19 02:30:13;;;;;;;2.10;1.00;;;0.70;99.90;;;;;;5132238;28;20202;-94
2022/12/19 02:33:01;;;;;;;1.47;0.93;;;0.70;99.90;;;;;;5143858;27;20212;-93
2022/12/19 02:35:39;;;;;;;1.33;1.10;;;0.70;99.90;;;;;;5143821;27;20198;-93
2022/12/19 02:38:16;;;;;;;3.77;1.40;;;0.70;99.90;;;;;;5142602;27;20300;-94
2022/12/19 02:40:52;;;;;;;1.63;1.03;;;0.60;99.90;;;;;;5144346;27;20215;-94
2022/12/19 02:43:26;;;;;;;7.83;1.40;;;0.60;99.90;;;;;;5130622;27;20237;-94
2022/12/19 02:45:58;;;;;;;1.87;1.20;;;0.60;99.90;;;;;;5127103;27;20197;-94
2022/12/19 02:48:34;;;;;;;5.53;1.20;;;0.60;99.90;;;;;;5129865;27;20209;-94
2022/12/19 02:51:12;;;;;;;4.17;1.53;;;0.60;99.90;;;;;;5128452;27;20200;-92
2022/12/19 02:53:44;;;;;;;2.70;1.40;;;0.60;99.90;;;;;;5128906;27;20216;-96
2022/12/19 02:56:34;;;;;;;4.57;1.70;;;0.60;99.90;;;;;;5123041;28;20206;-93
2022/12/19 02:59:27;;;;;;;3.00;1.40;;;0.50;99.90;;;;;;5121404;28;20241;-93
2022/12/19 03:02:03;;;;;;;2.57;1.43;;;0.50;99.90;;;;;;5121087;28;20198;-93
2022/12/19 03:04:47;;;;;;;2.33;1.30;;;0.50;99.90;;;;;;5136714;27;20254;-93
2022/12/19 03:07:30;;;;;;;4.50;1.47;;;0.50;99.90;;;;;;5139213;27;20202;-94
2022/12/19 03:10:11;;;;;;;4.30;1.90;;;0.50;99.90;;;;;;5138375;27;20239;-93
2022/12/19 03:12:49;;;;;;;2.63;1.50;;;0.50;99.90;;;;;;5120025;28;20198;-94
2022/12/19 03:15:21;;;;;;;2.73;1.20;;;0.60;99.90;;;;;;5126251;27;20203;-94
2022/12/19 03:17:53;;;;;;;2.43;1.20;;;0.60;99.90;;;;;;5135777;27;20273;-94
2022/12/19 03:20:43;;;;;;;4.17;1.40;;;0.60;99.90;;;;;;5126661;27;20213;-95
2022/12/19 03:23:15;;;;;;;3.43;1.30;;;0.50;99.90;;;;;;5136193;27;20237;-94
2022/12/19 03:25:53;;;;;;;1.77;1.23;;;0.60;99.90;;;;;;5125122;28;20198;-95
2022/12/19 03:28:34;;;;;;;1.23;1.03;;;0.40;99.90;;;;;;5125025;27;20202;-93
2022/12/19 03:31:07;;;;;;;3.53;1.30;;;0.40;99.90;;;;;;5134699;27;20206;-93
2022/12/19 03:33:43;;;;;;;4.40;1.60;;;0.30;99.90;;;;;;5130445;28;20198;-93
2022/12/19 03:36:22;;;;;;;3.47;1.23;;;0.30;99.90;;;;;;5130099;27;20559;-94
2022/12/19 03:38:53;;;;;;;2.10;1.50;;;0.40;99.90;;;;;;5123011;27;20202;-93
2022/12/19 03:44:14;;;;;;;4.47;1.60;;;0.50;99.90;;;;;;5137696;27;20311;-93
2022/12/19 03:46:57;;;;;;;3.53;1.80;;;0.50;99.90;;;;;;5139034;27;20223;-93
2022/12/19 03:49:28;;;;;;;4.07;1.90;;;0.50;99.90;;;;;;5133287;27;20257;-93
2022/12/19 03:52:15;;;;;;;2.80;1.30;;;0.50;99.90;;;;;;5121680;27;20218;-94
2022/12/19 03:54:50;;;;;;;1.87;1.30;;;0.50;99.90;;;;;;5117921;28;20212;-94
2022/12/19 03:57:29;;;;;;;4.13;1.27;;;0.40;99.90;;;;;;5118641;28;20206;-93
2022/12/19 04:00:07;;;;;;;5.77;1.40;;;0.30;99.90;;;;;;5117854;28;20293;-93
2022/12/19 04:02:45;;;;;;;3.93;1.40;;;0.40;99.90;;;;;;5118957;28;20226;-93
2022/12/19 04:05:27;;;;;;;4.00;1.40;;;0.50;99.90;;;;;;5124766;27;20222;-94
2022/12/19 04:08:05;;;;;;;2.50;1.23;;;0.50;99.90;;;;;;5124056;27;20197;-94
2022/12/19 04:10:41;;;;;;;2.80;1.60;;;0.50;99.90;;;;;;5126136;27;20197;-93
2022/12/19 04:13:17;;;;;;;4.40;1.60;;;0.50;99.90;;;;;;5143036;27;20205;-94
2022/12/19 04:15:56;;;;;;;1.33;0.90;;;0.40;99.90;;;;;;5119543;27;20212;-94
2022/12/19 04:18:28;;;;;;;2.20;0.97;;;0.50;99.90;;;;;;5118072;28;20605;-94
2022/12/19 04:21:11;;;;;;;2.50;1.07;;;0.50;99.90;;;;;;5122113;27;20204;-93
2022/12/19 04:23:50;;;;;;;3.40;1.23;;;0.40;99.90;;;;;;5128910;27;20658;-93
2022/12/19 04:26:25;;;;;;;2.20;1.30;;;0.50;99.90;;;;;;5137099;27;20202;-93
2022/12/19 04:29:01;;;;;;;2.10;1.40;;;0.50;99.90;;;;;;5129583;27;20239;-95
2022/12/19 04:31:34;;;;;;;3.47;1.50;;;0.40;99.90;;;;;;5132187;27;20304;-94
2022/12/19 04:34:06;;;;;;;3.83;2.50;;;0.40;99.90;;;;;;5121326;27;20254;-94
2022/12/19 04:36:50;;;;;;;3.30;1.43;;;0.30;99.90;;;;;;5121843;27;20243;-95
2022/12/19 04:39:31;;;;;;;4.40;1.10;;;0.20;99.90;;;;;;5138542;27;20189;-95
2022/12/19 04:44:47;;;;;;;1.97;0.87;;;-0.10;99.90;;;;;;5141040;27;20292;-95
2022/12/19 04:47:20;;;;;;;1.73;1.17;;;-0.10;99.90;;;;;;5123644;27;20293;-93
2022/12/19 04:52:36;;;;;;;3.30;1.27;;;0.10;99.90;;;;;;5139276;27;20301;-94
2022/12/19 04:55:12;;;;;;;3.67;2.27;;;0.20;99.90;;;;;;5125441;28;20210;-95
2022/12/19 04:57:44;;;;;;;4.23;2.47;;;0.30;99.90;;;;;;5144726;27;20288;-95
2022/12/19 05:00:22;;;;;;;8.83;2.37;;;0.20;99.90;;;;;;5126040;27;20250;-96
2022/12/19 05:02:54;;;;;;;2.57;1.73;;;0.20;99.90;;;;;;5134584;27;20220;-94
2022/12/19 05:05:28;;;;;;;2.37;1.70;;;0.20;99.90;;;;;;5137123;28;20206;-95
2022/12/19 05:07:59;;;;;;;2.70;1.50;;;0.20;99.90;;;;;;5142235;27;20202;-96
2022/12/19 05:10:39;;;;;;;6.63;2.23;;;0.20;99.90;;;;;;5150467;27;20632;-96
2022/12/19 05:13:11;;;;;;;2.30;1.40;;;0.20;99.90;;;;;;5139318;28;20219;-95
2022/12/19 05:15:43;;;;;;;3.73;1.23;;;0.10;99.90;;;;;;5152253;27;20190;-95
2022/12/19 05:18:18;;;;;;;2.57;1.40;;;0.20;99.90;;;;;;5127929;27;20206;-95
2022/12/19 05:20:50;;;;;;;1.87;1.30;;;0.20;99.90;;;;;;5123152;27;20644;-92
2022/12/19 05:23:22;;;;;;;1.53;1.10;;;0.20;99.90;;;;;;5132006;27;20233;-93
2022/12/19 05:25:59;;;;;;;3.97;1.30;;;0.20;99.90;;;;;;5131158;27;20563;-94
2022/12/19 05:28:31;;;;;;;2.43;1.37;;;0.10;99.90;;;;;;5117943;28;20212;-91
2022/12/19 05:31:07;;;;;;;2.80;1.10;;;0.00;99.90;;;;;;5126475;27;20241;-96
2022/12/19 05:33:41;;;;;;;3.37;1.50;;;0.10;99.90;;;;;;5127694;27;20202;-96
2022/12/19 05:36:21;;;;;;;3.97;1.43;;;0.10;99.90;;;;;;5133653;27;20338;-96
2022/12/19 05:39:01;;;;;;;7.20;2.10;;;0.10;99.90;;;;;;5126965;27;20262;-95
2022/12/19 05:41:41;;;;;;;5.73;2.77;;;0.10;99.90;;;;;;5131595;27;20221;-96
2022/12/19 05:44:23;;;;;;;3.73;1.33;;;0.10;99.90;;;;;;5120879;28;20309;-96
2022/12/19 05:46:56;;;;;;;4.23;1.37;;;0.20;99.90;;;;;;5121356;27;20221;-96
2022/12/19 05:49:31;;;;;;;3.23;1.13;;;0.20;99.90;;;;;;5123741;27;20225;-96
2022/12/19 05:52:07;;;;;;;5.20;1.40;;;0.10;99.90;;;;;;5147350;27;20210;-96
2022/12/19 05:54:41;;;;;;;5.27;1.40;;;-0.10;99.90;;;;;;5122586;27;20663;-96
2022/12/19 05:57:17;;;;;;;5.73;1.53;;;-0.10;99.90;;;;;;5140769;27;20314;-96
2022/12/19 05:59:49;;;;;;;1.77;1.10;;;-0.10;99.90;;;;;;5136628;27;20230;-95
2022/12/19 06:02:20;;;;;;;3.00;1.50;;;-0.10;99.90;;;;;;5142758;27;20208;-95
2022/12/19 06:04:56;;;;;;;4.63;3.07;;;-0.10;99.90;;;;;;5141002;27;20270;-96
2022/12/19 06:07:29;;;;;;;4.70;2.40;;;-0.10;99.90;;;;;;5141858;27;20232;-95
2022/12/19 06:10:05;;;;;;;7.80;1.50;;;-0.10;99.90;;;;;;5133047;27;20216;-96
2022/12/19 06:12:46;;;;;;;7.67;1.60;;;-0.20;99.90;;;;;;5122838;27;20228;-96
2022/12/19 06:15:17;;;;;;;2.80;1.03;;;-0.20;99.90;;;;;;5119918;27;20206;-95
2022/12/19 06:17:49;;;;;;;3.47;1.20;;;-0.20;99.90;;;;;;5119555;27;20210;-95
2022/12/19 06:20:20;;;;;;;2.10;1.20;;;-0.20;99.90;;;;;;5134617;27;20623;-96
2022/12/19 06:23:00;;;;;;;1.10;0.70;;;-0.20;99.90;;;;;;5161166;27;20216;-96
2022/12/19 06:25:35;;;;;;;3.23;0.97;;;-0.20;99.90;;;;;;5122743;27;20264;-96
2022/12/19 06:28:13;;;;;;;2.63;1.13;;;-0.20;99.90;;;;;;5138778;27;20209;-95
2022/12/19 06:30:47;;;;;;;4.00;2.07;;;-0.30;99.90;;;;;;5139466;27;20201;-96
2022/12/19 06:33:22;;;;;;;4.27;1.70;;;-0.20;99.90;;;;;;5122949;27;20200;-96
2022/12/19 06:36:00;;;;;;;6.70;1.70;;;-0.20;99.90;;;;;;5135339;27;20208;-95
2022/12/19 06:38:40;;;;;;;3.37;1.40;;;-0.20;99.90;;;;;;5133899;27;20621;-96
2022/12/19 06:44:18;;;;;;;3.80;1.47;;;-0.20;99.90;;;;;;5155135;27;20236;-96
2022/12/19 06:46:54;;;;;;;1.63;1.20;;;-0.10;99.90;;;;;;5146625;27;20383;-95
2022/12/19 06:49:26;;;;;;;3.97;1.00;;;-0.10;99.90;;;;;;5133322;27;20205;-96
2022/12/19 06:52:01;;;;;;;1.70;0.97;;;0.00;99.90;;;;;;5137257;27;20280;-95
2022/12/19 06:54:39;;;;;;;2.57;1.03;;;0.00;99.90;;;;;;5132705;27;20196;-95
2022/12/19 06:57:14;;;;;;;3.20;0.90;;;0.00;99.90;;;;;;5146113;27;20496;-94
2022/12/19 06:59:48;;;;;;;3.30;1.00;;;0.00;99.90;;;;;;5149435;27;20249;-93
2022/12/19 07:02:26;;;;;;;1.63;1.00;;;0.00;99.90;;;;;;5128109;28;20313;-96
2022/12/19 07:05:04;;;;;;;5.83;1.00;;;0.00;99.90;;;;;;5141385;27;20248;-96
2022/12/19 07:07:37;;;;;;;2.23;1.07;;;0.00;99.90;;;;;;5127465;27;20214;-96
2022/12/19 07:10:10;;;;;;;1.27;0.80;;;0.10;99.90;;;;;;5128511;27;20235;-96
2022/12/19 07:12:45;;;;;;;0.93;0.83;;;0.00;99.90;;;;;;5123440;27;20209;-96
2022/12/19 07:15:22;;;;;;;3.50;1.20;;;0.00;99.90;;;;;;5103902;28;20229;-96
2022/12/19 07:17:55;;;;;;;5.50;1.20;;;0.00;99.90;;;;;;5127737;27;20202;-96
2022/12/19 07:20:32;;;;;;;3.67;1.20;;;0.10;99.90;;;;;;5134565;27;20289;-96
2022/12/19 07:23:12;;;;;;;2.37;1.00;;;0.10;99.90;;;;;;5126197;27;20552;-96
2022/12/19 07:28:30;;;;;;;2.60;1.20;;;0.00;99.90;;;;;;5120111;28;20210;-96
2022/12/19 07:31:04;;;;;;;1.67;1.00;;;0.00;99.90;;;;;;5119688;28;20207;-96
2022/12/19 07:33:39;;;;;;;4.20;1.10;;;0.00;99.90;;;;;;5119381;28;20206;-95
2022/12/19 07:36:12;;;;;;;6.17;1.50;;;0.00;99.90;;;;;;5119531;28;20193;-96
2022/12/19 07:38:53;;;;;;;4.27;1.20;;;0.00;99.90;;;;;;5135449;27;20214;-96
2022/12/19 07:41:26;;;;;;;2.67;1.13;;;0.00;99.90;;;;;;5128835;27;20201;-96
2022/12/19 07:44:05;;;;;;;2.73;1.07;;;0.10;99.90;;;;;;5134260;27;20205;-96
2022/12/19 07:46:57;;;;;;;2.23;1.00;;;0.10;99.90;;;;;;5120162;28;20229;-96
2022/12/19 07:49:31;;;;;;;2.40;1.10;;;0.00;99.90;;;;;;5122111;27;20264;-96
2022/12/19 07:52:04;;;;;;;1.40;1.00;;;0.00;99.90;;;;;;5132831;27;20211;-96
2022/12/19 07:54:35;;;;;;;4.90;1.40;;;-0.10;99.90;;;;;;5129146;27;20678;-96
2022/12/19 07:57:08;;;;;;;1.90;1.00;;;-0.10;99.90;;;;;;5142621;27;21025;-96
2022/12/19 07:59:40;;;;;;;2.67;1.40;;;-0.10;99.90;;;;;;5124012;27;20202;-96
2022/12/19 08:02:15;;;;;;;4.10;1.63;;;0.00;99.90;;;;;;5130317;27;20224;-96
2022/12/19 08:04:49;;;;;;;2.97;1.50;;;-0.10;99.90;;;;;;5139933;27;20232;-94
2022/12/19 08:07:24;;;;;;;5.57;1.80;;;-0.10;99.90;;;;;;5134149;27;20198;-95
2022/12/19 08:10:05;;;;;;;2.73;1.70;;;0.00;99.90;;;;;;5126171;27;20201;-95
2022/12/19 08:12:38;;;;;;;5.93;1.90;;;0.10;99.90;;;;;;5130274;27;20201;-96
2022/12/19 08:15:11;;;;;;;6.50;1.87;;;0.10;99.90;;;;;;5155167;27;20273;-96
2022/12/19 08:17:47;;;;;;;4.17;1.87;;;0.10;99.90;;;;;;5147940;27;20197;-96
2022/12/19 08:20:20;;;;;;;6.27;1.70;;;0.10;99.90;;;;;;5140270;27;20201;-96
2022/12/19 08:22:52;;;;;;;5.50;1.60;;;0.10;99.90;;;;;;5139846;27;20686;-96
2022/12/19 08:25:26;;;;;;;3.47;1.93;;;0.10;99.90;;;;;;5140189;27;20259;-95
2022/12/19 08:27:59;;;;;;;7.60;2.00;;;0.00;99.90;;;;;;5141322;27;20291;-96
2022/12/19 08:30:31;;;;;;;5.50;1.87;;;0.00;99.90;;;;;;5127582;27;20289;-95
2022/12/19 08:33:08;;;;;;;2.37;1.70;;;0.00;99.90;;;;;;5119256;28;20208;-96
2022/12/19 08:35:40;;;;;;;4.87;1.57;;;0.00;99.90;;;;;;5118286;28;20206;-96
2022/12/19 08:38:12;;;;;;;5.83;1.70;;;0.00;99.90;;;;;;5121204;28;20236;-96
